Terminal Aerodrome Forecast
Issued by NWS

Home | Current Version | Previous Version | Text Only | Print | Product List | Glossary On
Versions: 1 2 3 4 5 6 7 8 9 10 11 12 13 14 15 16 17 18
000
FTUS45 KTFX 262000 AAA
TAFHLN
TAF AMD
KHLN 262054Z 2621/2718 VRB06KT P6SM OVC035
     FM262200 VRB06KT P6SM BKN090
     FM270300 VRB06KT P6SM SCT150
     FM270600 VRB06KT P6SM BKN150=

USA.gov is the U.S. government's official web portal to all federal, state and local government web resources and services.